createdAt,value
2022-12-08T00:01:49.700Z,5.17
2022-12-08T00:04:16.484Z,5.15
2022-12-08T00:07:02.396Z,5.17
2022-12-08T00:09:39.042Z,5.19
2022-12-08T00:12:07.960Z,5.19
2022-12-08T00:14:43.032Z,5.21
2022-12-08T00:17:10.998Z,5.24
2022-12-08T00:19:39.195Z,5.24
2022-12-08T00:22:07.032Z,5.20
2022-12-08T00:24:38.356Z,5.13
2022-12-08T00:27:05.083Z,5.12
2022-12-08T00:29:31.478Z,5.11
2022-12-08T00:31:57.978Z,5.09
2022-12-08T00:34:24.570Z,5.05
2022-12-08T00:36:51.000Z,5.02
2022-12-08T00:39:17.902Z,5.00
2022-12-08T00:42:03.062Z,4.99
2022-12-08T00:44:29.547Z,5.02
2022-12-08T00:46:56.002Z,5.03
2022-12-08T00:49:22.913Z,5.00
2022-12-08T00:51:49.364Z,4.99
2022-12-08T00:54:16.071Z,5.00
2022-12-08T00:56:42.626Z,5.08
2022-12-08T00:59:09.985Z,5.11
2022-12-08T01:01:36.871Z,5.11
2022-12-08T01:04:08.869Z,5.10
2022-12-08T01:06:35.511Z,5.11
2022-12-08T01:09:03.473Z,5.11
2022-12-08T01:11:29.871Z,5.10
2022-12-08T01:13:56.389Z,5.07
2022-12-08T01:16:28.671Z,5.11
2022-12-08T01:18:56.506Z,5.12
2022-12-08T01:21:22.960Z,5.11
2022-12-08T01:23:49.364Z,5.13
2022-12-08T01:26:17.325Z,5.14
2022-12-08T01:28:44.345Z,5.13
2022-12-08T01:31:20.107Z,5.12
2022-12-08T01:33:47.721Z,5.12
2022-12-08T01:36:21.242Z,5.10
2022-12-08T01:38:47.732Z,5.08
2022-12-08T01:41:19.898Z,5.06
2022-12-08T01:44:02.484Z,5.05
2022-12-08T01:46:31.208Z,5.02
2022-12-08T01:49:17.663Z,5.03
2022-12-08T01:51:54.866Z,5.03
2022-12-08T01:54:26.357Z,5.06
2022-12-08T01:57:00.731Z,5.03
2022-12-08T01:59:28.666Z,5.05
2022-12-08T02:01:55.522Z,5.03
2022-12-08T02:04:21.937Z,5.00
2022-12-08T02:06:49.983Z,5.02
2022-12-08T02:09:16.584Z,5.04
2022-12-08T02:11:43.011Z,5.05
2022-12-08T02:14:13.555Z,5.04
2022-12-08T02:16:50.992Z,5.03
2022-12-08T02:19:39.102Z,5.04
2022-12-08T02:22:24.079Z,5.05
2022-12-08T02:25:14.802Z,5.06
2022-12-08T02:27:41.526Z,4.84
2022-12-08T02:30:22.757Z,4.79
2022-12-08T02:33:00.997Z,4.83
2022-12-08T02:35:44.014Z,4.86
2022-12-08T02:38:16.615Z,4.92
2022-12-08T02:41:16.983Z,4.95
2022-12-08T02:44:00.216Z,4.94
2022-12-08T02:46:55.897Z,4.96
2022-12-08T02:49:28.172Z,4.96
2022-12-08T02:52:05.448Z,4.95
2022-12-08T02:54:33.128Z,4.96
2022-12-08T02:57:15.528Z,4.96
2022-12-08T03:00:09.332Z,4.99
2022-12-08T03:03:06.899Z,5.01
2022-12-08T03:06:01.957Z,5.03
2022-12-08T03:08:39.265Z,5.05
2022-12-08T03:11:20.337Z,5.08
2022-12-08T03:13:51.744Z,5.08
2022-12-08T03:16:24.393Z,5.04
2022-12-08T03:19:06.053Z,5.04
2022-12-08T03:21:35.698Z,5.02
2022-12-08T03:24:07.072Z,4.96
2022-12-08T03:26:48.476Z,4.93
2022-12-08T03:29:15.053Z,4.93
2022-12-08T03:31:49.275Z,4.95
2022-12-08T03:34:18.045Z,4.97
2022-12-08T03:36:45.134Z,5.00
2022-12-08T03:39:12.094Z,5.03
2022-12-08T03:41:38.489Z,5.05
2022-12-08T03:44:05.110Z,5.07
2022-12-08T03:46:31.999Z,5.08
2022-12-08T03:48:58.448Z,5.07
2022-12-08T03:51:25.420Z,5.07
2022-12-08T03:53:51.843Z,5.09
2022-12-08T03:56:36.348Z,5.12
2022-12-08T03:59:03.410Z,5.13
2022-12-08T04:01:29.903Z,5.12
2022-12-08T04:03:56.512Z,5.12
2022-12-08T04:06:23.245Z,5.11
2022-12-08T04:08:50.458Z,5.12
2022-12-08T04:11:18.263Z,5.13
2022-12-08T04:13:45.069Z,5.13
2022-12-08T04:16:17.734Z,5.12
2022-12-08T04:18:44.822Z,5.04
2022-12-08T04:21:11.653Z,4.89
2022-12-08T04:23:38.059Z,4.69
2022-12-08T04:26:05.404Z,4.56
2022-12-08T04:28:32.035Z,4.59
2022-12-08T04:30:58.580Z,4.55
2022-12-08T04:33:25.072Z,4.50
2022-12-08T04:35:51.485Z,4.52
2022-12-08T04:38:17.918Z,4.51
2022-12-08T04:40:44.611Z,4.50
2022-12-08T04:43:11.160Z,4.50
2022-12-08T04:45:40.435Z,4.56
2022-12-08T04:48:07.541Z,4.61
2022-12-08T04:50:33.938Z,4.65
2022-12-08T04:53:00.365Z,4.70
2022-12-08T04:55:26.783Z,4.71
2022-12-08T04:57:53.204Z,4.75
2022-12-08T05:00:19.839Z,4.77
2022-12-08T05:02:46.423Z,4.79
2022-12-08T05:05:12.855Z,4.80
2022-12-08T05:07:39.527Z,4.79
2022-12-08T05:10:07.060Z,4.75
2022-12-08T05:12:33.880Z,4.77
2022-12-08T05:15:00.326Z,4.80
2022-12-08T05:17:26.665Z,4.81
2022-12-08T05:19:53.225Z,4.83
2022-12-08T05:22:19.621Z,4.85
2022-12-08T05:24:47.797Z,4.83
2022-12-08T05:27:14.744Z,4.83
2022-12-08T05:29:41.144Z,4.81
2022-12-08T05:32:07.668Z,4.84
2022-12-08T05:34:34.119Z,4.82
2022-12-08T05:37:00.551Z,4.83
2022-12-08T05:39:27.118Z,4.81
2022-12-08T05:41:53.562Z,4.82
2022-12-08T05:44:19.976Z,4.80
2022-12-08T05:46:46.386Z,4.77
2022-12-08T05:49:12.835Z,4.76
2022-12-08T05:51:39.216Z,4.73
2022-12-08T05:54:05.626Z,4.70
2022-12-08T05:56:32.081Z,4.71
2022-12-08T05:58:58.440Z,4.67
2022-12-08T06:01:27.569Z,4.64
2022-12-08T06:03:54.498Z,4.63
2022-12-08T06:06:21.011Z,4.64
2022-12-08T06:08:47.460Z,4.62
2022-12-08T06:11:25.729Z,4.62
2022-12-08T06:13:52.603Z,4.59
2022-12-08T06:16:20.026Z,4.61
2022-12-08T06:18:46.544Z,4.63
2022-12-08T06:21:14.743Z,4.61
2022-12-08T06:23:41.903Z,4.60
2022-12-08T06:26:11.759Z,4.60
2022-12-08T06:28:40.456Z,4.61
2022-12-08T06:31:09.351Z,4.58
2022-12-08T06:33:36.795Z,4.59
2022-12-08T06:36:04.526Z,4.58
2022-12-08T06:38:31.267Z,4.56
2022-12-08T06:40:58.728Z,4.56
2022-12-08T06:43:25.846Z,4.56
2022-12-08T06:45:52.742Z,4.55
2022-12-08T06:48:19.608Z,4.52
2022-12-08T06:50:46.165Z,4.53
2022-12-08T06:53:16.608Z,4.50
2022-12-08T06:55:59.179Z,4.50
2022-12-08T06:58:26.266Z,4.47
2022-12-08T07:00:53.424Z,4.46
2022-12-08T07:03:19.865Z,4.43
2022-12-08T07:05:46.550Z,4.39
2022-12-08T07:08:13.022Z,4.38
2022-12-08T07:10:39.743Z,4.40
2022-12-08T07:13:06.164Z,4.39
2022-12-08T07:15:32.588Z,4.36
2022-12-08T07:18:00.326Z,4.34
2022-12-08T07:20:27.155Z,4.34
2022-12-08T07:22:53.905Z,4.33
2022-12-08T07:25:20.535Z,4.31
2022-12-08T07:27:47.184Z,4.32
2022-12-08T07:30:14.156Z,4.33
2022-12-08T07:32:40.772Z,4.33
2022-12-08T07:35:08.233Z,4.32
2022-12-08T07:37:35.800Z,4.31
2022-12-08T07:40:02.600Z,4.32
2022-12-08T07:42:29.420Z,4.30
2022-12-08T07:44:55.931Z,4.30
2022-12-08T07:47:22.312Z,4.32
2022-12-08T07:49:48.769Z,4.30
2022-12-08T07:52:15.228Z,4.29
2022-12-08T07:54:41.617Z,4.29
2022-12-08T07:57:09.543Z,4.27
2022-12-08T07:59:35.904Z,4.25
2022-12-08T08:02:22.706Z,4.29
2022-12-08T08:04:51.815Z,4.32
2022-12-08T08:07:18.293Z,4.33
2022-12-08T08:09:45.591Z,4.35
2022-12-08T08:12:30.952Z,4.38
2022-12-08T08:14:59.538Z,4.39
2022-12-08T08:17:26.013Z,4.41
2022-12-08T08:19:52.550Z,4.42
2022-12-08T08:22:18.957Z,4.42
2022-12-08T08:24:45.464Z,4.44
2022-12-08T08:27:12.067Z,4.44
2022-12-08T08:29:38.512Z,4.45
2022-12-08T08:32:04.992Z,4.47
2022-12-08T08:34:31.416Z,4.45
2022-12-08T08:36:57.922Z,4.47
2022-12-08T08:39:24.416Z,4.49
2022-12-08T08:41:50.823Z,4.51
2022-12-08T08:44:17.356Z,4.52
2022-12-08T08:46:43.807Z,4.62
2022-12-08T08:49:10.225Z,4.66
2022-12-08T08:51:38.581Z,4.63
2022-12-08T08:54:05.044Z,4.60
2022-12-08T08:56:31.659Z,4.56
2022-12-08T08:58:58.156Z,4.58
2022-12-08T09:01:26.820Z,4.60
2022-12-08T09:03:54.693Z,4.61
2022-12-08T09:06:21.753Z,4.61
2022-12-08T09:08:49.028Z,4.64
2022-12-08T09:11:16.063Z,4.66
2022-12-08T09:13:42.496Z,4.60
2022-12-08T09:16:10.750Z,4.57
2022-12-08T09:18:37.423Z,4.54
2022-12-08T09:21:05.517Z,4.50
2022-12-08T09:23:35.369Z,4.45
2022-12-08T09:26:03.224Z,4.43
2022-12-08T09:28:29.676Z,4.43
2022-12-08T09:30:56.175Z,4.47
2022-12-08T09:33:22.723Z,4.49
2022-12-08T09:35:49.259Z,4.50
2022-12-08T09:38:15.937Z,4.50
2022-12-08T09:40:54.140Z,4.52
2022-12-08T09:43:51.511Z,4.53
2022-12-08T09:46:19.195Z,4.51
2022-12-08T09:48:55.578Z,4.45
2022-12-08T09:51:27.435Z,4.44
2022-12-08T09:53:59.922Z,4.44
2022-12-08T09:56:36.143Z,4.41
2022-12-08T09:59:14.582Z,4.43
2022-12-08T10:01:43.937Z,4.40
2022-12-08T10:04:25.527Z,4.35
2022-12-08T10:07:05.279Z,4.36
2022-12-08T10:09:34.639Z,4.33
2022-12-08T10:12:26.475Z,4.29
2022-12-08T10:15:23.612Z,4.24
2022-12-08T10:17:53.721Z,4.19
2022-12-08T10:20:24.480Z,4.23
2022-12-08T10:23:02.457Z,4.20
2022-12-08T10:25:36.267Z,4.18
2022-12-08T10:28:02.974Z,4.21
2022-12-08T10:30:31.829Z,4.24
2022-12-08T10:32:58.471Z,4.25
2022-12-08T10:35:25.323Z,4.23
2022-12-08T10:37:59.894Z,4.20
2022-12-08T10:40:39.253Z,4.20
2022-12-08T10:43:17.484Z,4.23
2022-12-08T10:45:44.875Z,4.28
2022-12-08T10:48:39.420Z,4.31
2022-12-08T10:51:22.597Z,4.27
2022-12-08T10:53:48.960Z,4.29
2022-12-08T10:56:16.423Z,4.26
2022-12-08T10:58:45.218Z,4.32
2022-12-08T11:01:21.913Z,4.36
2022-12-08T11:04:02.717Z,4.38
2022-12-08T11:06:29.078Z,4.41
2022-12-08T11:08:56.740Z,4.40
2022-12-08T11:11:51.059Z,4.41
2022-12-08T11:14:25.497Z,4.54
2022-12-08T11:17:04.663Z,4.60
2022-12-08T11:19:31.214Z,4.57
2022-12-08T11:21:57.602Z,4.59
2022-12-08T11:24:28.588Z,4.60
2022-12-08T11:27:02.376Z,4.62
2022-12-08T11:29:32.039Z,4.64
2022-12-08T11:32:07.387Z,4.61
2022-12-08T11:35:02.499Z,4.56
2022-12-08T11:37:35.661Z,4.60
2022-12-08T11:40:07.981Z,4.61
2022-12-08T11:42:44.678Z,4.57
2022-12-08T11:45:24.378Z,4.58
2022-12-08T11:48:04.594Z,4.56
2022-12-08T11:51:12.052Z,4.49
2022-12-08T11:54:03.557Z,4.53
2022-12-08T11:56:36.430Z,4.57
2022-12-08T11:59:16.324Z,4.63
2022-12-08T12:01:42.966Z,4.68
2022-12-08T12:04:15.103Z,4.77
2022-12-08T12:06:55.192Z,4.81
2022-12-08T12:09:34.144Z,4.82
2022-12-08T12:12:34.935Z,4.84
2022-12-08T12:15:27.407Z,4.89
2022-12-08T12:18:03.632Z,5.02
2022-12-08T12:20:56.048Z,5.09
2022-12-08T12:23:58.554Z,5.15
2022-12-08T12:26:28.537Z,5.19
2022-12-08T12:29:04.385Z,5.20
2022-12-08T12:31:35.968Z,5.27
2022-12-08T12:34:11.484Z,5.25
2022-12-08T12:36:57.472Z,5.18
2022-12-08T12:39:31.320Z,5.12
2022-12-08T12:42:01.029Z,5.09
2022-12-08T12:44:33.273Z,5.00
2022-12-08T12:47:02.515Z,4.98
2022-12-08T12:49:41.170Z,4.87
2022-12-08T12:52:16.834Z,4.82
2022-12-08T12:54:44.022Z,4.76
2022-12-08T12:57:10.329Z,4.76
2022-12-08T12:59:55.947Z,4.70
2022-12-08T13:02:28.420Z,4.66
2022-12-08T13:05:00.818Z,4.69
2022-12-08T13:07:34.230Z,4.72
2022-12-08T13:10:17.780Z,4.73
2022-12-08T13:12:45.543Z,4.79
2022-12-08T13:15:22.299Z,4.79
2022-12-08T13:17:49.220Z,4.75
2022-12-08T13:20:22.768Z,4.74
2022-12-08T13:22:49.468Z,4.74
2022-12-08T13:25:40.594Z,4.77
2022-12-08T13:28:16.097Z,4.77
2022-12-08T13:30:54.076Z,4.74
2022-12-08T13:33:39.296Z,4.73
2022-12-08T13:36:19.700Z,4.71
2022-12-08T13:38:48.066Z,4.65
2022-12-08T13:41:22.194Z,4.50
2022-12-08T13:44:50.367Z,4.43
2022-12-08T13:47:25.123Z,4.38
2022-12-08T13:51:23.909Z,4.24
2022-12-08T13:58:34.486Z,4.30
2022-12-08T14:01:14.804Z,4.28
2022-12-08T14:04:31.003Z,4.27
2022-12-08T14:06:45.385Z,4.25
2022-12-08T14:09:17.007Z,4.28
2022-12-08T14:11:47.808Z,4.32
2022-12-08T14:14:45.774Z,4.32
2022-12-08T14:17:13.995Z,4.37
2022-12-08T14:19:52.420Z,4.39
2022-12-08T14:22:18.991Z,4.41
2022-12-08T14:24:47.999Z,4.39
2022-12-08T14:27:23.812Z,4.36
2022-12-08T14:29:56.812Z,4.31
2022-12-08T14:32:30.047Z,4.31
2022-12-08T14:35:01.442Z,4.24
2022-12-08T14:37:33.692Z,4.23
2022-12-08T14:40:07.673Z,4.22
2022-12-08T14:42:43.755Z,4.23
2022-12-08T14:45:13.591Z,4.18
2022-12-08T14:47:40.599Z,4.20
2022-12-08T14:50:38.414Z,4.14
2022-12-08T14:53:11.983Z,4.01
2022-12-08T14:55:38.513Z,3.91
2022-12-08T14:58:05.295Z,3.84
2022-12-08T15:00:31.753Z,3.85
2022-12-08T15:02:58.288Z,3.89
2022-12-08T15:05:30.542Z,3.92
2022-12-08T15:08:03.201Z,3.91
2022-12-08T15:10:33.153Z,3.91
2022-12-08T15:13:08.739Z,3.91
2022-12-08T15:15:53.193Z,3.89
2022-12-08T15:18:34.614Z,3.82
2022-12-08T15:21:04.648Z,3.81
2022-12-08T15:23:42.592Z,3.76
2022-12-08T15:26:10.164Z,3.76
2022-12-08T15:28:36.552Z,3.76
2022-12-08T15:31:03.076Z,3.74
2022-12-08T15:33:29.556Z,3.75
2022-12-08T15:35:55.961Z,3.77
2022-12-08T15:38:25.848Z,3.75
2022-12-08T15:40:53.295Z,3.74
2022-12-08T15:43:20.295Z,3.75
2022-12-08T15:45:57.871Z,3.76
2022-12-08T15:48:28.044Z,3.78
2022-12-08T15:50:55.957Z,3.78
2022-12-08T15:53:22.558Z,3.81
2022-12-08T15:56:18.982Z,3.85
2022-12-08T15:58:54.090Z,4.06
2022-12-08T16:01:22.090Z,4.05
2022-12-08T16:09:31.116Z,3.93
2022-12-08T16:12:16.453Z,3.91
2022-12-08T16:17:31.195Z,4.13
2022-12-08T16:19:58.118Z,4.85
2022-12-08T16:22:52.737Z,4.78
2022-12-08T16:25:20.761Z,4.54
2022-12-08T16:28:01.184Z,4.37
2022-12-08T16:30:28.104Z,4.27
2022-12-08T16:32:54.525Z,4.21
2022-12-08T16:35:20.880Z,4.17
2022-12-08T16:37:48.438Z,4.15
2022-12-08T16:40:15.161Z,4.09
2022-12-08T16:42:43.520Z,4.09
2022-12-08T16:45:22.540Z,4.10
2022-12-08T16:47:54.537Z,4.10
2022-12-08T16:50:32.398Z,4.05
2022-12-08T16:53:00.622Z,4.05
2022-12-08T16:55:27.217Z,4.06
2022-12-08T16:57:54.332Z,4.06
2022-12-08T17:00:23.622Z,4.08
2022-12-08T17:02:50.992Z,4.21
2022-12-08T17:05:20.290Z,4.22
2022-12-08T17:07:48.799Z,4.20
2022-12-08T17:10:18.681Z,4.18
2022-12-08T17:12:45.452Z,4.11
2022-12-08T17:15:15.018Z,4.07
2022-12-08T17:17:41.689Z,4.04
2022-12-08T17:20:14.701Z,3.99
2022-12-08T17:22:41.133Z,3.93
2022-12-08T17:25:08.239Z,3.91
2022-12-08T17:27:35.797Z,3.94
2022-12-08T17:30:02.408Z,4.01
2022-12-08T17:32:28.951Z,4.02
2022-12-08T17:34:55.450Z,4.02
2022-12-08T17:37:21.887Z,3.98
2022-12-08T17:39:48.287Z,3.92
2022-12-08T17:42:14.647Z,3.91
2022-12-08T17:44:41.089Z,3.90
2022-12-08T17:47:07.512Z,3.90
2022-12-08T17:49:33.989Z,3.90
2022-12-08T17:52:04.580Z,3.89
2022-12-08T17:54:31.285Z,3.88
2022-12-08T17:56:58.731Z,3.85
2022-12-08T17:59:27.501Z,3.83
2022-12-08T18:01:55.398Z,3.79
2022-12-08T18:04:22.013Z,3.70
2022-12-08T18:06:48.644Z,3.67
2022-12-08T18:09:15.691Z,3.69
2022-12-08T18:11:43.347Z,3.73
2022-12-08T18:14:11.009Z,3.71
2022-12-08T18:16:39.497Z,3.68
2022-12-08T18:19:06.616Z,3.67
2022-12-08T18:21:33.785Z,3.66
2022-12-08T18:24:00.542Z,3.63
2022-12-08T18:26:27.501Z,3.61
2022-12-08T18:28:53.908Z,3.59
2022-12-08T18:31:21.786Z,3.54
2022-12-08T18:33:49.257Z,3.55
2022-12-08T18:36:19.498Z,3.54
2022-12-08T18:38:46.043Z,3.50
2022-12-08T18:41:19.582Z,3.49
2022-12-08T18:43:46.557Z,3.46
2022-12-08T18:46:14.376Z,3.43
2022-12-08T18:48:43.886Z,3.39
2022-12-08T18:51:11.955Z,3.36
2022-12-08T18:53:39.599Z,3.36
2022-12-08T18:56:06.788Z,3.36
2022-12-08T18:58:34.050Z,3.37
2022-12-08T19:01:00.445Z,3.36
2022-12-08T19:03:26.907Z,3.35
2022-12-08T19:06:04.113Z,3.35
2022-12-08T19:08:31.727Z,3.35
2022-12-08T19:10:58.872Z,3.35
2022-12-08T19:13:25.470Z,3.32
2022-12-08T19:15:52.027Z,3.29
2022-12-08T19:18:18.569Z,3.26
2022-12-08T19:20:44.945Z,3.26
2022-12-08T19:23:15.067Z,3.28
2022-12-08T19:25:41.644Z,3.25
2022-12-08T19:28:08.104Z,3.21
2022-12-08T19:30:34.593Z,3.18
2022-12-08T19:33:01.002Z,3.16
2022-12-08T19:35:27.369Z,3.14
2022-12-08T19:37:54.959Z,3.12
2022-12-08T19:40:40.145Z,3.12
2022-12-08T19:43:34.422Z,3.11
2022-12-08T19:46:00.942Z,3.12
2022-12-08T19:48:27.876Z,3.13
2022-12-08T19:50:54.278Z,3.11
2022-12-08T19:53:20.915Z,3.09
2022-12-08T19:55:47.867Z,3.07
2022-12-08T19:58:14.331Z,3.04
2022-12-08T20:00:41.645Z,3.03
2022-12-08T20:03:08.380Z,3.07
2022-12-08T20:05:36.485Z,3.10
2022-12-08T20:08:03.221Z,3.12
2022-12-08T20:10:35.144Z,3.13
2022-12-08T20:13:20.315Z,3.13
2022-12-08T20:15:46.994Z,3.16
2022-12-08T20:18:15.019Z,3.18
2022-12-08T20:20:43.055Z,3.18
2022-12-08T20:23:10.086Z,3.19
2022-12-08T20:25:40.076Z,3.16
2022-12-08T20:28:07.089Z,3.13
2022-12-08T20:30:33.858Z,3.07
2022-12-08T20:33:00.266Z,3.07
2022-12-08T20:35:27.127Z,3.09
2022-12-08T20:37:53.544Z,3.10
2022-12-08T20:40:20.594Z,3.14
2022-12-08T20:42:47.026Z,3.15
2022-12-08T20:45:13.403Z,3.17
2022-12-08T20:47:39.850Z,3.17
2022-12-08T20:50:07.586Z,3.20
2022-12-08T20:52:34.238Z,3.21
2022-12-08T20:55:00.672Z,3.22
2022-12-08T20:57:27.171Z,3.21
2022-12-08T20:59:53.659Z,3.19
2022-12-08T21:02:20.240Z,3.21
2022-12-08T21:04:46.859Z,3.26
2022-12-08T21:07:13.504Z,3.28
2022-12-08T21:09:40.170Z,3.30
2022-12-08T21:12:06.760Z,3.32
2022-12-08T21:14:34.657Z,3.36
2022-12-08T21:17:01.113Z,3.36
2022-12-08T21:19:27.803Z,3.34
2022-12-08T21:21:54.189Z,3.36
2022-12-08T21:24:20.669Z,3.39
2022-12-08T21:26:47.398Z,3.39
2022-12-08T21:29:14.042Z,3.40
2022-12-08T21:31:40.826Z,3.40
2022-12-08T21:34:07.704Z,3.40
2022-12-08T21:36:34.433Z,3.42
2022-12-08T21:39:02.427Z,3.43
2022-12-08T21:41:48.045Z,3.41
2022-12-08T21:44:18.690Z,3.41
2022-12-08T21:46:45.441Z,3.41
2022-12-08T21:49:12.057Z,3.40
2022-12-08T21:51:41.826Z,3.39
2022-12-08T21:54:13.564Z,3.38
2022-12-08T21:56:45.635Z,3.37
2022-12-08T21:59:12.205Z,3.36
2022-12-08T22:01:39.010Z,3.39
2022-12-08T22:04:05.879Z,3.44
2022-12-08T22:06:32.320Z,3.46
2022-12-08T22:08:58.908Z,3.43
2022-12-08T22:11:25.803Z,3.48
2022-12-08T22:13:52.402Z,3.46
2022-12-08T22:16:18.938Z,3.44
2022-12-08T22:18:45.531Z,3.39
2022-12-08T22:21:17.144Z,3.38
2022-12-08T22:23:44.146Z,3.36
2022-12-08T22:26:11.402Z,3.30
2022-12-08T22:28:40.240Z,3.17
2022-12-08T22:31:14.447Z,3.20
2022-12-08T22:33:41.945Z,3.25
2022-12-08T22:36:14.979Z,3.32
2022-12-08T22:38:41.668Z,3.34
2022-12-08T22:41:08.035Z,3.38
2022-12-08T22:43:34.683Z,3.41
2022-12-08T22:46:01.374Z,3.46
2022-12-08T22:48:28.052Z,3.45
2022-12-08T22:51:01.988Z,3.46
2022-12-08T22:53:28.751Z,3.47
2022-12-08T22:55:55.348Z,3.44
2022-12-08T22:58:22.004Z,3.45
2022-12-08T23:00:48.511Z,3.46
2022-12-08T23:03:14.965Z,3.47
2022-12-08T23:05:41.643Z,3.45
2022-12-08T23:08:08.940Z,3.47
2022-12-08T23:10:35.972Z,3.47
2022-12-08T23:13:04.189Z,3.44
2022-12-08T23:15:31.573Z,3.45
2022-12-08T23:17:58.197Z,3.44
2022-12-08T23:20:24.916Z,3.46
2022-12-08T23:22:51.662Z,3.50
2022-12-08T23:25:18.568Z,3.52
2022-12-08T23:27:45.656Z,3.51
2022-12-08T23:30:13.125Z,3.55
2022-12-08T23:32:40.036Z,3.56
2022-12-08T23:35:07.492Z,3.57
2022-12-08T23:37:34.773Z,3.57
2022-12-08T23:40:01.896Z,3.56
2022-12-08T23:42:30.062Z,3.56
2022-12-08T23:44:56.539Z,3.55
2022-12-08T23:47:23.155Z,3.53
2022-12-08T23:49:49.606Z,3.50
2022-12-08T23:52:16.071Z,3.50
2022-12-08T23:54:42.438Z,3.49
2022-12-08T23:57:08.929Z,3.43
2022-12-08T23:59:35.358Z,3.38
